createdAt,value
2018-11-01T00:01:42.837Z,101209.65
2018-11-01T00:04:11.746Z,101213.27
2018-11-01T00:06:40.632Z,101213.09
2018-11-01T00:09:09.857Z,101209.67
2018-11-01T00:11:38.749Z,101205.73
2018-11-01T00:14:08.162Z,101203.55
2018-11-01T00:16:37.049Z,101196.31
2018-11-01T00:19:06.257Z,101197.02
2018-11-01T00:21:35.114Z,101204.23
2018-11-01T00:24:03.991Z,101211.09
2018-11-01T00:26:32.908Z,101217.58
2018-11-01T00:29:01.772Z,101211.16
2018-11-01T00:31:30.673Z,101203.95
2018-11-01T00:33:59.608Z,101204.36
2018-11-01T00:36:28.534Z,101200.53
2018-11-01T00:38:57.396Z,101196.89
2018-11-01T00:41:26.270Z,101203.37
2018-11-01T00:43:55.301Z,101208.73
2018-11-01T00:46:24.161Z,101205.66
2018-11-01T00:48:53.073Z,101209.89
2018-11-01T00:51:21.981Z,101213.86
2018-11-01T00:53:50.832Z,101214.28
2018-11-01T00:56:19.693Z,101217.94
2018-11-01T00:58:48.638Z,101200.37
2018-11-01T01:01:17.525Z,101205.34
2018-11-01T01:03:46.401Z,101194.47
2018-11-01T01:06:15.304Z,101202.95
2018-11-01T01:08:44.276Z,101206.78
2018-11-01T01:11:13.194Z,101198.95
2018-11-01T01:13:43.198Z,101207.96
2018-11-01T01:16:12.091Z,101209.01
2018-11-01T01:18:41.011Z,101211.77
2018-11-01T01:21:21.082Z,101197.69
2018-11-01T01:23:49.975Z,101196.53
2018-11-01T01:26:18.848Z,101190.45
2018-11-01T01:28:47.776Z,101188.55
2018-11-01T01:31:16.718Z,101193.91
2018-11-01T01:33:45.619Z,101191.30
2018-11-01T01:36:14.757Z,101186.14
2018-11-01T01:38:43.672Z,101188.92
2018-11-01T01:41:12.622Z,101194.17
2018-11-01T01:43:41.538Z,101186.51
2018-11-01T01:46:10.483Z,101191.20
2018-11-01T01:48:39.356Z,101194.18
2018-11-01T01:51:08.249Z,101188.58
2018-11-01T01:53:37.177Z,101184.04
2018-11-01T01:56:06.093Z,101188.00
2018-11-01T01:58:35.038Z,101189.40
2018-11-01T02:01:04.010Z,101192.83
2018-11-01T02:03:32.935Z,101190.99
2018-11-01T02:06:01.826Z,101191.15
2018-11-01T02:08:30.871Z,101189.56
2018-11-01T02:10:59.808Z,101188.12
2018-11-01T02:13:28.780Z,101181.47
2018-11-01T02:15:57.643Z,101179.25
2018-11-01T02:18:26.594Z,101175.17
2018-11-01T02:20:55.449Z,101169.92
2018-11-01T02:23:24.332Z,101164.50
2018-11-01T02:25:53.252Z,101172.14
2018-11-01T02:28:22.094Z,101165.31
2018-11-01T02:30:50.929Z,101158.83
2018-11-01T02:33:19.862Z,101154.42
2018-11-01T02:35:48.902Z,101153.14
2018-11-01T02:38:17.939Z,101153.56
2018-11-01T02:40:46.612Z,101155.61
2018-11-01T02:43:15.485Z,101149.55
2018-11-01T02:45:44.420Z,101153.01
2018-11-01T02:48:13.312Z,101151.45
2018-11-01T02:50:42.239Z,101152.92
2018-11-01T02:53:11.100Z,101152.88
2018-11-01T02:55:40.026Z,101149.63
2018-11-01T02:58:08.890Z,101146.33
2018-11-01T03:00:37.777Z,101147.92
2018-11-01T03:03:06.689Z,101151.31
2018-11-01T03:05:35.567Z,101146.54
2018-11-01T03:08:04.446Z,101143.81
2018-11-01T03:10:33.295Z,101145.16
2018-11-01T03:13:02.256Z,101136.96
2018-11-01T03:15:31.187Z,101134.45
2018-11-01T03:18:00.093Z,101125.77
2018-11-01T03:20:29.084Z,101123.89
2018-11-01T03:22:57.949Z,101120.63
2018-11-01T03:25:26.853Z,101116.56
2018-11-01T03:27:55.792Z,101103.32
2018-11-01T03:30:24.993Z,101104.66
2018-11-01T03:32:53.844Z,101109.91
2018-11-01T03:35:22.753Z,101108.83
2018-11-01T03:37:51.653Z,101115.40
2018-11-01T03:40:20.646Z,101107.28
2018-11-01T03:42:49.555Z,101108.70
2018-11-01T03:45:18.502Z,101105.28
2018-11-01T03:47:47.381Z,101096.95
2018-11-01T03:50:16.305Z,101091.25
2018-11-01T03:52:45.148Z,101085.45
2018-11-01T03:55:14.021Z,101082.84
2018-11-01T03:57:43.379Z,101076.57
2018-11-01T04:00:14.778Z,101070.22
2018-11-01T04:02:44.565Z,101070.84
2018-11-01T04:05:13.465Z,101072.52
2018-11-01T04:07:42.334Z,101071.30
2018-11-01T04:10:11.858Z,101069.38
2018-11-01T04:12:40.713Z,101070.17
2018-11-01T04:15:12.112Z,101070.92
2018-11-01T04:17:40.973Z,101070.30
2018-11-01T04:20:11.272Z,101062.52
2018-11-01T04:22:40.624Z,101061.89
2018-11-01T04:25:09.479Z,101055.06
2018-11-01T04:27:38.403Z,101062.44
2018-11-01T04:30:07.799Z,101053.66
2018-11-01T04:32:36.772Z,101047.80
2018-11-01T04:35:06.456Z,101049.59
2018-11-01T04:37:35.356Z,101045.37
2018-11-01T04:40:04.283Z,101046.71
2018-11-01T04:42:33.227Z,101046.55
2018-11-01T04:45:02.117Z,101042.23
2018-11-01T04:47:31.056Z,101046.13
2018-11-01T04:49:59.876Z,101048.05
2018-11-01T04:52:28.761Z,101049.72
2018-11-01T04:54:57.738Z,101042.41
2018-11-01T04:57:26.593Z,101040.97
2018-11-01T04:59:55.479Z,101041.14
2018-11-01T05:02:24.333Z,101044.37
2018-11-01T05:04:53.217Z,101049.64
2018-11-01T05:07:22.064Z,101053.27
2018-11-01T05:09:50.947Z,101061.42
2018-11-01T05:12:19.805Z,101059.16
2018-11-01T05:14:48.702Z,101063.92
2018-11-01T05:17:17.573Z,101064.28
2018-11-01T05:19:46.459Z,101054.87
2018-11-01T05:22:15.362Z,101057.84
2018-11-01T05:24:44.342Z,101053.02
2018-11-01T05:27:13.138Z,101052.16
2018-11-01T05:29:42.025Z,101044.40
2018-11-01T05:32:10.902Z,101047.94
2018-11-01T05:34:39.839Z,101048.64
2018-11-01T05:37:08.686Z,101040.90
2018-11-01T05:39:37.546Z,101036.31
2018-11-01T05:42:06.484Z,101040.90
2018-11-01T05:44:35.373Z,101036.74
2018-11-01T05:47:04.276Z,101040.33
2018-11-01T05:49:33.146Z,101042.12
2018-11-01T05:52:02.029Z,101040.89
2018-11-01T05:54:31.076Z,101032.40
2018-11-01T05:56:59.947Z,101032.91
2018-11-01T05:59:28.801Z,101037.03
2018-11-01T06:02:00.520Z,101029.63
2018-11-01T06:04:29.412Z,101027.41
2018-11-01T06:06:58.301Z,101018.38
2018-11-01T06:09:30.703Z,101020.87
2018-11-01T06:11:59.600Z,101011.59
2018-11-01T06:14:28.883Z,101016.27
2018-11-01T06:16:58.077Z,101019.98
2018-11-01T06:19:26.973Z,101016.53
2018-11-01T06:21:55.868Z,101022.53
2018-11-01T06:24:24.738Z,101027.02
2018-11-01T06:26:53.657Z,101021.94
2018-11-01T06:29:23.559Z,101013.12
2018-11-01T06:31:52.410Z,101020.55
2018-11-01T06:34:26.791Z,101021.55
2018-11-01T06:36:55.783Z,101013.30
2018-11-01T06:39:24.623Z,101017.93
2018-11-01T06:41:53.500Z,101002.72
2018-11-01T06:44:22.458Z,101003.16
2018-11-01T06:46:51.276Z,101003.07
2018-11-01T06:49:20.731Z,100999.95
2018-11-01T06:51:49.653Z,101006.19
2018-11-01T06:54:18.615Z,100995.95
2018-11-01T06:56:47.460Z,100993.13
2018-11-01T06:59:16.876Z,100989.19
2018-11-01T07:01:45.605Z,100992.92
2018-11-01T07:04:14.648Z,100982.42
2018-11-01T07:06:43.535Z,100985.75
2018-11-01T07:09:13.584Z,100996.33
2018-11-01T07:11:42.810Z,101004.20
2018-11-01T07:14:11.716Z,101012.82
2018-11-01T07:16:40.597Z,101004.50
2018-11-01T07:19:09.813Z,100993.81
2018-11-01T07:21:38.687Z,100993.70
2018-11-01T07:24:07.589Z,100972.73
2018-11-01T07:26:36.658Z,100964.38
2018-11-01T07:29:05.465Z,100952.88
2018-11-01T07:31:34.350Z,100950.08
2018-11-01T07:34:03.245Z,100949.92
2018-11-01T07:36:32.160Z,100951.38
2018-11-01T07:39:01.025Z,100950.05
2018-11-01T07:41:29.911Z,100953.72
2018-11-01T07:43:58.803Z,100953.27
2018-11-01T07:46:27.678Z,100950.21
2018-11-01T07:48:56.533Z,100942.56
2018-11-01T07:51:25.560Z,100940.80
2018-11-01T07:53:54.500Z,100934.65
2018-11-01T07:56:23.464Z,100930.26
2018-11-01T07:58:52.337Z,100922.33
2018-11-01T08:01:21.198Z,100919.58
2018-11-01T08:03:50.107Z,100919.81
2018-11-01T08:06:19.024Z,100919.36
2018-11-01T08:08:47.888Z,100915.48
2018-11-01T08:11:16.769Z,100913.12
2018-11-01T08:13:45.702Z,100912.20
2018-11-01T08:16:14.556Z,100908.84
2018-11-01T08:18:43.475Z,100911.91
2018-11-01T08:21:12.654Z,100925.63
2018-11-01T08:23:41.349Z,100924.40
2018-11-01T08:26:10.262Z,100918.32
2018-11-01T08:28:39.169Z,100912.00
2018-11-01T08:31:08.091Z,100911.78
2018-11-01T08:33:37.008Z,100913.55
2018-11-01T08:36:06.053Z,100919.23
2018-11-01T08:38:34.958Z,100913.06
2018-11-01T08:41:03.921Z,100920.55
2018-11-01T08:43:32.776Z,100916.78
2018-11-01T08:46:01.672Z,100909.57
2018-11-01T08:48:30.580Z,100910.41
2018-11-01T08:50:59.477Z,100909.22
2018-11-01T08:53:28.386Z,100910.42
2018-11-01T08:55:57.297Z,100910.27
2018-11-01T08:58:26.168Z,100906.17
2018-11-01T09:00:55.101Z,100898.72
2018-11-01T09:03:24.116Z,100902.59
2018-11-01T09:05:52.989Z,100907.09
2018-11-01T09:08:21.908Z,100903.08
2018-11-01T09:10:50.786Z,100904.58
2018-11-01T09:13:19.881Z,100908.91
2018-11-01T09:15:48.692Z,100908.09
2018-11-01T09:18:17.556Z,100910.48
2018-11-01T09:20:46.417Z,100908.17
2018-11-01T09:23:15.304Z,100904.23
2018-11-01T09:25:44.184Z,100897.97
2018-11-01T09:28:13.099Z,100899.09
2018-11-01T09:30:42.067Z,100901.19
2018-11-01T09:33:10.938Z,100893.20
2018-11-01T09:35:39.856Z,100896.57
2018-11-01T09:38:08.736Z,100897.69
2018-11-01T09:40:37.637Z,100899.32
2018-11-01T09:43:06.526Z,100887.48
2018-11-01T09:45:35.427Z,100881.69
2018-11-01T09:48:04.320Z,100881.98
2018-11-01T09:50:33.211Z,100867.46
2018-11-01T09:53:02.127Z,100870.20
2018-11-01T09:55:31.010Z,100868.51
2018-11-01T09:57:59.890Z,100863.38
2018-11-01T10:00:28.769Z,100855.31
2018-11-01T10:02:57.633Z,100845.95
2018-11-01T10:05:26.533Z,100842.00
2018-11-01T10:07:55.470Z,100840.39
2018-11-01T10:10:24.360Z,100838.80
2018-11-01T10:12:53.268Z,100835.42
2018-11-01T10:15:22.463Z,100829.05
2018-11-01T10:17:51.599Z,100825.22
2018-11-01T10:20:20.037Z,100822.89
2018-11-01T10:22:49.081Z,100833.09
2018-11-01T10:25:18.011Z,100830.13
2018-11-01T10:27:47.051Z,100831.02
2018-11-01T10:30:17.410Z,100815.56
2018-11-01T10:32:46.351Z,100814.61
2018-11-01T10:35:16.182Z,100811.74
2018-11-01T10:37:45.067Z,100809.84
2018-11-01T10:40:18.372Z,100803.77
2018-11-01T10:42:47.270Z,100803.38
2018-11-01T10:45:16.176Z,100795.34
2018-11-01T10:47:45.140Z,100799.36
2018-11-01T10:50:15.754Z,100797.14
2018-11-01T10:52:44.721Z,100785.73
2018-11-01T10:55:14.000Z,100780.75
2018-11-01T10:57:43.087Z,100780.75
2018-11-01T11:00:17.683Z,100786.47
2018-11-01T11:02:47.753Z,100784.23
2018-11-01T11:05:17.408Z,100779.98
2018-11-01T11:07:46.611Z,100786.19
2018-11-01T11:10:15.885Z,100781.98
2018-11-01T11:12:44.979Z,100777.41
2018-11-01T11:15:13.887Z,100768.30
2018-11-01T11:17:42.790Z,100772.64
2018-11-01T11:20:12.510Z,100766.27
2018-11-01T11:22:41.583Z,100762.73
2018-11-01T11:25:11.761Z,100757.42
2018-11-01T11:27:40.869Z,100755.67
2018-11-01T11:30:10.591Z,100751.17
2018-11-01T11:32:39.597Z,100752.56
2018-11-01T11:35:09.166Z,100759.80
2018-11-01T11:37:38.039Z,100755.12
2018-11-01T11:40:08.420Z,100750.03
2018-11-01T11:42:37.297Z,100747.22
2018-11-01T11:45:06.719Z,100737.92
2018-11-01T11:47:35.583Z,100736.06
2018-11-01T11:50:04.982Z,100735.33
2018-11-01T11:52:33.950Z,100730.73
2018-11-01T11:55:02.798Z,100728.61
2018-11-01T11:57:31.713Z,100731.06
2018-11-01T12:00:00.612Z,100728.05
2018-11-01T12:02:29.653Z,100723.98
2018-11-01T12:04:58.477Z,100718.06
2018-11-01T12:07:27.351Z,100714.95
2018-11-01T12:09:56.247Z,100705.03
2018-11-01T12:12:25.127Z,100702.39
2018-11-01T12:14:54.046Z,100699.98
2018-11-01T12:17:22.944Z,100696.00
2018-11-01T12:19:51.829Z,100697.52
2018-11-01T12:22:20.775Z,100702.80
2018-11-01T12:24:49.614Z,100703.13
2018-11-01T12:27:18.491Z,100702.83
2018-11-01T12:29:47.573Z,100689.27
2018-11-01T12:32:16.634Z,100685.32
2018-11-01T12:34:45.527Z,100669.75
2018-11-01T12:37:14.403Z,100665.77
2018-11-01T12:39:43.305Z,100668.48
2018-11-01T12:42:12.265Z,100655.33
2018-11-01T12:44:41.155Z,100647.53
2018-11-01T12:47:10.165Z,100643.93
2018-11-01T12:49:39.327Z,100638.68
2018-11-01T12:52:08.190Z,100642.62
2018-11-01T12:54:37.121Z,100639.86
2018-11-01T12:57:06.034Z,100643.38
2018-11-01T12:59:34.927Z,100643.69
2018-11-01T13:02:03.813Z,100637.69
2018-11-01T13:04:32.678Z,100631.24
2018-11-01T13:07:01.599Z,100633.69
2018-11-01T13:09:30.475Z,100626.70
2018-11-01T13:12:00.402Z,100624.48
2018-11-01T13:14:29.304Z,100620.09
2018-11-01T13:16:58.221Z,100625.70
2018-11-01T13:19:27.104Z,100620.80
2018-11-01T13:21:56.192Z,100619.73
2018-11-01T13:24:25.094Z,100609.09
2018-11-01T13:26:53.959Z,100605.46
2018-11-01T13:29:22.911Z,100607.59
2018-11-01T13:31:51.772Z,100600.63
2018-11-01T13:34:20.686Z,100595.73
2018-11-01T13:36:49.564Z,100584.47
2018-11-01T13:39:18.471Z,100585.92
2018-11-01T13:41:47.461Z,100591.88
2018-11-01T13:44:16.392Z,100585.74
2018-11-01T13:46:45.476Z,100597.77
2018-11-01T13:49:14.307Z,100594.33
2018-11-01T13:51:44.015Z,100586.63
2018-11-01T13:54:13.173Z,100587.13
2018-11-01T13:56:42.118Z,100592.08
2018-11-01T13:59:10.979Z,100593.06
2018-11-01T14:01:39.911Z,100601.33
2018-11-01T14:04:08.784Z,100593.81
2018-11-01T14:06:37.713Z,100589.90
2018-11-01T14:09:08.383Z,100584.48
2018-11-01T14:11:37.637Z,100583.38
2018-11-01T14:14:07.016Z,100575.52
2018-11-01T14:16:35.692Z,100574.33
2018-11-01T14:19:04.612Z,100578.80
2018-11-01T14:21:33.475Z,100582.15
2018-11-01T14:24:02.436Z,100578.05
2018-11-01T14:26:31.326Z,100584.45
2018-11-01T14:29:00.247Z,100591.00
2018-11-01T14:31:29.185Z,100599.78
2018-11-01T14:33:58.112Z,100593.84
2018-11-01T14:36:26.974Z,100604.05
2018-11-01T14:38:55.873Z,100611.42
2018-11-01T14:41:25.698Z,100610.56
2018-11-01T14:43:54.618Z,100633.22
2018-11-01T14:46:23.511Z,100633.66
2018-11-01T14:48:52.436Z,100626.14
2018-11-01T14:51:21.389Z,100610.52
2018-11-01T14:53:50.517Z,100597.23
2018-11-01T14:56:20.671Z,100588.27
2018-11-01T14:58:49.704Z,100575.39
2018-11-01T15:01:17.218Z,100567.13
2018-11-01T15:03:46.122Z,100572.30
2018-11-01T15:06:14.989Z,100559.00
2018-11-01T15:08:43.929Z,100545.31
2018-11-01T15:11:12.844Z,100551.38
2018-11-01T15:13:41.746Z,100560.03
2018-11-01T15:16:10.649Z,100569.00
2018-11-01T15:18:39.548Z,100566.48
2018-11-01T15:21:08.446Z,100563.41
2018-11-01T15:23:37.357Z,100553.66
2018-11-01T15:26:06.404Z,100566.23
2018-11-01T15:28:35.299Z,100559.38
2018-11-01T15:31:04.192Z,100566.20
2018-11-01T15:33:33.149Z,100552.14
2018-11-01T15:36:02.019Z,100556.31
2018-11-01T15:38:30.883Z,100551.45
2018-11-01T15:40:59.806Z,100555.52
2018-11-01T15:43:29.045Z,100558.95
2018-11-01T15:45:58.077Z,100562.70
2018-11-01T15:48:27.104Z,100551.63
2018-11-01T15:50:56.055Z,100548.63
2018-11-01T15:53:24.936Z,100532.80
2018-11-01T15:55:53.859Z,100538.52
2018-11-01T15:58:22.729Z,100546.45
2018-11-01T16:00:51.661Z,100533.08
2018-11-01T16:03:20.704Z,100535.52
2018-11-01T16:05:49.603Z,100529.79
2018-11-01T16:08:18.569Z,100529.77
2018-11-01T16:10:47.471Z,100539.16
2018-11-01T16:13:16.464Z,100547.50
2018-11-01T16:15:45.373Z,100537.13
2018-11-01T16:18:14.303Z,100539.52
2018-11-01T16:20:43.180Z,100533.43
2018-11-01T16:23:12.256Z,100519.15
2018-11-01T16:25:41.180Z,100536.03
2018-11-01T16:28:10.065Z,100527.49
2018-11-01T16:30:38.987Z,100514.64
2018-11-01T16:33:07.895Z,100517.64
2018-11-01T16:35:36.813Z,100505.23
2018-11-01T16:38:05.796Z,100500.61
2018-11-01T16:40:34.672Z,100496.55
2018-11-01T16:43:03.544Z,100510.91
2018-11-01T16:45:32.459Z,100507.66
2018-11-01T16:48:01.362Z,100512.06
2018-11-01T16:50:30.272Z,100514.14
2018-11-01T16:52:59.182Z,100513.33
2018-11-01T16:55:28.049Z,100519.87
2018-11-01T16:57:57.069Z,100523.90
2018-11-01T17:00:26.013Z,100527.21
2018-11-01T17:02:54.937Z,100530.73
2018-11-01T17:05:23.861Z,100528.45
2018-11-01T17:07:52.794Z,100531.19
2018-11-01T17:10:21.647Z,100530.31
2018-11-01T17:12:50.556Z,100528.45
2018-11-01T17:15:20.768Z,100528.50
2018-11-01T17:17:49.574Z,100536.95
2018-11-01T17:20:18.475Z,100533.27
2018-11-01T17:22:47.378Z,100531.84
2018-11-01T17:25:16.266Z,100524.81
2018-11-01T17:27:45.187Z,100520.31
2018-11-01T17:30:14.098Z,100518.81
2018-11-01T17:32:50.815Z,100534.22
2018-11-01T17:35:19.763Z,100541.73
2018-11-01T17:37:48.657Z,100542.09
2018-11-01T17:40:17.666Z,100554.14
2018-11-01T17:42:46.471Z,100551.09
2018-11-01T17:45:15.406Z,100557.31
2018-11-01T17:47:44.293Z,100561.45
2018-11-01T17:50:14.500Z,100564.41
2018-11-01T17:52:43.683Z,100568.27
2018-11-01T17:55:12.623Z,100575.52
2018-11-01T17:57:41.931Z,100572.97
2018-11-01T18:00:12.122Z,100571.34
2018-11-01T18:02:41.582Z,100561.15
2018-11-01T18:05:11.224Z,100556.48
2018-11-01T18:07:40.734Z,100548.08
2018-11-01T18:10:10.877Z,100544.69
2018-11-01T18:12:39.799Z,100542.75
2018-11-01T18:15:09.052Z,100537.69
2018-11-01T18:17:38.002Z,100540.30
2018-11-01T18:20:08.379Z,100547.91
2018-11-01T18:22:37.363Z,100545.40
2018-11-01T18:25:07.440Z,100543.66
2018-11-01T18:27:36.445Z,100546.55
2018-11-01T18:30:06.563Z,100553.06
2018-11-01T18:32:35.533Z,100547.89
2018-11-01T18:35:04.388Z,100554.48
2018-11-01T18:37:33.317Z,100560.71
2018-11-01T18:40:02.250Z,100557.76
2018-11-01T18:42:31.243Z,100568.08
2018-11-01T18:45:00.043Z,100556.73
2018-11-01T18:47:28.989Z,100566.50
2018-11-01T18:49:57.921Z,100569.27
2018-11-01T18:52:26.853Z,100573.81
2018-11-01T18:54:55.763Z,100567.66
2018-11-01T18:57:24.699Z,100571.78
2018-11-01T18:59:53.632Z,100568.81
2018-11-01T19:02:22.514Z,100568.07
2018-11-01T19:04:51.441Z,100578.58
2018-11-01T19:07:20.351Z,100581.50
2018-11-01T19:09:49.244Z,100578.34
2018-11-01T19:12:18.234Z,100581.92
2018-11-01T19:14:47.127Z,100575.57
2018-11-01T19:17:16.085Z,100576.37
2018-11-01T19:19:45.263Z,100571.88
2018-11-01T19:22:14.015Z,100577.75
2018-11-01T19:24:42.916Z,100588.72
2018-11-01T19:27:12.056Z,100577.15
2018-11-01T19:29:40.808Z,100578.44
2018-11-01T19:32:09.739Z,100576.18
2018-11-01T19:34:38.890Z,100569.97
2018-11-01T19:37:07.741Z,100561.65
2018-11-01T19:39:36.750Z,100568.58
2018-11-01T19:42:05.723Z,100568.77
2018-11-01T19:44:34.620Z,100567.38
2018-11-01T19:47:03.561Z,100566.22
2018-11-01T19:49:32.487Z,100562.71
2018-11-01T19:52:01.372Z,100572.94
2018-11-01T19:54:30.363Z,100580.16
2018-11-01T19:56:59.258Z,100579.41
2018-11-01T19:59:28.207Z,100571.19
2018-11-01T20:01:57.108Z,100566.45
2018-11-01T20:04:26.119Z,100576.93
2018-11-01T20:06:54.998Z,100574.97
2018-11-01T20:09:23.883Z,100593.18
2018-11-01T20:11:52.760Z,100602.31
2018-11-01T20:14:21.705Z,100605.75
2018-11-01T20:16:50.594Z,100608.94
2018-11-01T20:19:19.686Z,100609.42
2018-11-01T20:21:48.487Z,100605.69
2018-11-01T20:24:17.294Z,100611.11
2018-11-01T20:26:46.242Z,100605.59
2018-11-01T20:29:15.143Z,100613.37
2018-11-01T20:31:44.145Z,100626.27
2018-11-01T20:34:12.951Z,100634.96
2018-11-01T20:36:41.873Z,100641.16
2018-11-01T20:39:13.543Z,100646.85
2018-11-01T20:41:42.551Z,100631.42
2018-11-01T20:44:12.073Z,100650.77
2018-11-01T20:46:41.043Z,100661.88
2018-11-01T20:49:09.935Z,100662.55
2018-11-01T20:51:38.833Z,100665.86
2018-11-01T20:54:07.739Z,100656.08
2018-11-01T20:56:36.618Z,100660.75
2018-11-01T20:59:05.587Z,100656.12
2018-11-01T21:01:34.506Z,100651.25
2018-11-01T21:04:03.415Z,100663.61
2018-11-01T21:06:32.294Z,100660.05
2018-11-01T21:09:01.286Z,100670.83
2018-11-01T21:11:30.415Z,100669.03
2018-11-01T21:13:59.310Z,100669.77
2018-11-01T21:16:28.193Z,100679.93
2018-11-01T21:18:57.071Z,100677.48
2018-11-01T21:21:25.970Z,100673.06
2018-11-01T21:23:54.901Z,100677.42
2018-11-01T21:26:23.768Z,100681.36
2018-11-01T21:28:52.698Z,100678.81
2018-11-01T21:31:21.562Z,100687.15
2018-11-01T21:33:50.541Z,100688.15
2018-11-01T21:36:19.424Z,100685.35
2018-11-01T21:38:48.281Z,100684.52
2018-11-01T21:41:17.209Z,100693.48
2018-11-01T21:43:46.096Z,100686.77
2018-11-01T21:46:14.985Z,100683.02
2018-11-01T21:48:43.927Z,100693.62
2018-11-01T21:51:12.788Z,100693.80
2018-11-01T21:53:42.662Z,100693.73
2018-11-01T21:56:11.681Z,100691.45
2018-11-01T21:58:40.600Z,100694.57
2018-11-01T22:01:09.492Z,100703.61
2018-11-01T22:03:38.416Z,100706.80
2018-11-01T22:06:07.383Z,100711.06
2018-11-01T22:08:36.354Z,100721.73
2018-11-01T22:11:05.331Z,100722.73
2018-11-01T22:13:34.253Z,100714.52
2018-11-01T22:16:03.144Z,100718.94
2018-11-01T22:18:32.030Z,100721.27
2018-11-01T22:21:00.954Z,100715.73
2018-11-01T22:23:29.838Z,100719.70
2018-11-01T22:25:58.754Z,100722.02
2018-11-01T22:28:27.675Z,100725.47
2018-11-01T22:30:56.640Z,100728.50
2018-11-01T22:33:25.509Z,100734.26
2018-11-01T22:35:54.453Z,100735.72
2018-11-01T22:38:23.353Z,100729.09
2018-11-01T22:40:52.383Z,100727.21
2018-11-01T22:43:21.312Z,100733.75
2018-11-01T22:45:50.244Z,100730.84
2018-11-01T22:48:19.178Z,100727.98
2018-11-01T22:50:48.106Z,100723.02
2018-11-01T22:53:17.040Z,100719.05
2018-11-01T22:55:45.920Z,100727.32
2018-11-01T22:58:14.848Z,100723.79
2018-11-01T23:00:44.837Z,100725.36
2018-11-01T23:03:14.146Z,100719.45
2018-11-01T23:05:43.082Z,100729.72
2018-11-01T23:08:12.029Z,100737.08
2018-11-01T23:10:40.929Z,100748.82
2018-11-01T23:13:09.844Z,100757.66
2018-11-01T23:15:38.714Z,100755.69
2018-11-01T23:18:07.617Z,100749.61
2018-11-01T23:20:36.483Z,100751.84
2018-11-01T23:23:07.768Z,100752.80
2018-11-01T23:25:37.354Z,100765.41
2018-11-01T23:28:07.867Z,100764.25
2018-11-01T23:30:36.831Z,100769.83
2018-11-01T23:33:07.010Z,100786.45
2018-11-01T23:35:38.924Z,100781.08
2018-11-01T23:38:14.266Z,100784.07
2018-11-01T23:40:48.400Z,100783.69
2018-11-01T23:43:22.694Z,100787.10
2018-11-01T23:45:57.078Z,100790.20
2018-11-01T23:48:25.180Z,100780.34
2018-11-01T23:51:03.497Z,100785.53
2018-11-01T23:53:34.779Z,100783.38
2018-11-01T23:56:03.837Z,100788.58
2018-11-01T23:58:32.714Z,100788.19
